Station: Oenpelli Airport  

  Atmospheric Gas Attenuation - ITU Rec 676-11   ----------------- dB/100km -----------------
Date Time Temp RH % AH g/m3 Dew Point Wind Direction Speed kph Gust kph Barometer mB Rainfall Since 9am 24GHz 47GHz 76GHz 122GHz 134GHz 241GHz
03/09 03:30 23.3 86 17.98 20.8 4 6 1016.2 0 38.9 39.0 74.3 196.3 214.5 744.6
03/09 03:20 23.3 86 17.98 20.8 6 7 1016.2 0 38.9 39.0 74.3 196.3 214.5 744.6
03/09 03:10 23.4 85 17.87 20.7 6 7 1016.2 0 38.7 38.8 73.6 194.7 212.5 737.7
03/09 03:00 23.6 85 18.08 20.9 6 7 1016.2 0 39.1 39.1 74.4 196.8 215.1 747.0
03/09 02:50 23.6 84 17.86 20.7 6 7 1016.3 0 38.7 38.7 73.4 194.1 211.8 735.3
03/09 02:40 23.5 85 17.97 20.8 6 7 1016.4 0 38.9 38.9 74.0 195.7 213.8 742.2
03/09 02:30 23.4 86 18.08 20.9 4 6 1016.4 0 39.1 39.2 74.6 197.3 215.8 749.1
03/09 02:20 22.6 85 17.07 19.9 0 6 1016.4 0 37.1 37.6 70.7 186.7 202.5 702.8
03/09 02:10 22.8 84 17.07 19.9 0 0 1016.5 0 37.0 37.6 70.5 186.3 202.0 701.0
03/09 02:00 23 84 17.26 20.1 2 2 1016.6 0 37.4 37.8 71.2 188.1 204.3 709.3
03/09 01:50 23.4 84 17.66 20.5 2 4 1016.7 0 38.2 38.4 72.7 192.1 209.3 726.8
03/09 01:40 23.4 84 17.66 20.5 4 4 1016.7 0 38.2 38.4 72.7 192.1 209.3 726.8
03/09 01:30 23.5 84 17.76 20.6 4 6 1016.8 0 38.5 38.6 73.1 193.1 210.6 731.2
03/09 01:20 23.7 83 17.75 20.6 4 7 1016.8 0 38.4 38.4 72.8 192.5 209.9 728.7
03/09 01:10 23.6 83 17.65 20.5 4 6 1016.9 0 38.2 38.3 72.5 191.5 208.7 724.4
03/09 01:00 23.6 83 17.65 20.5 4 6 1016.9 0 38.2 38.3 72.5 191.5 208.7 724.4
03/09 00:50 23.7 82 17.54 20.4 4 6 1017 0 38.0 38.1 71.9 189.9 206.7 717.7
03/09 00:40 23.9 81 17.52 20.4 4 6 1017 0 37.9 37.9 71.6 189.2 205.9 714.8
03/09 00:30 23.9 81 17.52 20.4 4 7 1017.1 0 37.9 37.9 71.6 189.2 205.9 714.8
03/09 00:20 23.9 81 17.52 20.4 4 6 1017.2 0 37.9 37.9 71.6 189.2 205.9 714.9
03/09 00:10 23.9 80 17.31 20.2 6 6 1017.2 0 37.5 37.6 70.6 186.6 202.7 703.8
03/09 00:00 23.9 80 17.31 20.2 4 6 1017.3 0 37.5 37.6 70.6 186.7 202.7 703.9
02/09 23:50 23.9 81 17.52 20.4 4 7 1017.2 0 37.9 37.9 71.6 189.2 205.9 714.9
02/09 23:40 23.7 81 17.32 20.2 4 6 1017.2 0 37.5 37.7 70.8 187.3 203.4 706.2
02/09 23:30 23.7 81 17.32 20.2 4 6 1017.2 0 37.5 37.7 70.8 187.3 203.4 706.2
02/09 23:20 23.8 80 17.21 20.1 4 6 1017.1 0 37.2 37.4 70.2 185.6 201.5 699.5
02/09 23:10 23.9 80 17.31 20.2 4 6 1017 0 37.5 37.5 70.6 186.6 202.7 703.7
02/09 23:00 24 80 17.4 20.3 6 6 1017.1 0 37.6 37.7 70.9 187.5 203.8 707.6
02/09 22:50 24.1 79 17.28 20.2 6 6 1017 0 37.4 37.4 70.3 185.8 201.7 700.3
02/09 22:40 24.2 79 17.38 20.3 6 7 1017 0 37.6 37.5 70.6 186.7 202.9 704.6
02/09 22:30 24.3 78 17.26 20.2 6 7 1017 0 37.3 37.3 70.0 185.0 200.9 697.5
02/09 22:20 24.3 78 17.26 20.2 7 9 1016.9 0 37.3 37.3 70.0 185.0 200.9 697.4
02/09 22:10 24.4 77 17.14 20.1 7 11 1016.9 0 37.0 37.0 69.4 183.3 198.8 690.3
02/09 22:00 24.6 76 17.1 20.1 7 11 1017 0 36.9 36.8 69.0 182.4 197.7 686.4
02/09 21:50 24.6 75 16.88 19.9 9 13 1016.9 0 36.5 36.4 68.0 179.7 194.4 675.1
02/09 21:40 24.6 74 16.65 19.7 7 11 1016.9 0 36.0 36.0 67.0 177.0 191.1 663.3
02/09 21:30 24.5 73 16.34 19.3 6 7 1016.9 0 35.3 35.5 65.7 173.5 186.8 648.4
02/09 21:20 24.4 74 16.47 19.5 6 7 1016.7 0 35.6 35.8 66.3 175.2 188.9 655.8
02/09 21:10 24.8 72 16.39 19.4 6 9 1016.7 0 35.4 35.5 65.6 173.4 186.7 648.3
02/09 21:00 25.3 70 16.39 19.4 7 11 1016.7 0 35.4 35.3 65.2 172.3 185.5 644.1
02/09 20:50 25.6 69 16.43 19.5 9 13 1016.6 0 35.4 35.2 65.1 172.1 185.3 643.6
02/09 20:40 25.7 68 16.28 19.3 9 13 1016.5 0 35.1 34.9 64.4 170.1 182.9 635.2
02/09 20:30 25.9 65 15.74 18.8 9 13 1016.4 0 34.0 33.9 61.9 163.4 174.8 607.0
02/09 20:20 26.1 62 15.18 18.2 9 13 1016.3 0 32.8 32.8 59.3 156.7 166.6 578.3
02/09 20:10 26.3 62 15.35 18.4 11 15 1016.1 0 33.1 33.0 59.9 158.1 168.5 584.9
02/09 20:00 26.7 59 14.93 18 13 17 1015.9 0 32.2 32.2 57.8 152.6 161.9 561.8
02/09 19:50 26.9 58 14.85 17.9 11 19 1015.7 0 32.0 32.0 57.3 151.4 160.3 556.6
02/09 19:40 27.1 57 14.75 17.8 11 19 1015.5 0 31.8 31.7 56.8 149.9 158.6 550.4
02/09 19:30 27.1 56 14.49 17.6 9 13 1015.4 0 31.2 31.3 55.7 147.0 155.1 538.2
02/09 19:20 27.2 56 14.57 17.7 9 15 1015.2 0 31.4 31.4 55.9 147.7 155.9 541.2
02/09 19:10 27.5 54 14.29 17.4 13 17 1015 0 30.8 30.8 54.6 144.1 151.6 526.1
02/09 19:00 27.8 54 14.53 17.6 13 19 1014.9 0 31.3 31.1 55.3 146.1 154.2 535.1
02/09 18:50 28.3 52 14.38 17.5 19 24 1014.8 0 30.9 30.7 54.4 143.6 151.2 524.8
02/09 18:40 28.6 52 14.62 17.8 17 22 1014.7 0 31.4 30.9 55.1 145.5 153.7 533.7
02/09 18:30 28.9 51 14.57 17.7 17 26 1014.6 0 31.3 30.8 54.7 144.5 152.5 529.4
02/09 18:20 29.3 51 14.89 18.1 17 22 1014.4 0 31.9 31.1 55.7 147.1 155.8 541.1
02/09 18:10 29.8 49 14.7 17.9 19 28 1014.2 0 31.5 30.6 54.6 144.1 152.4 529.1
02/09 18:00 30.1 48 14.64 17.9 19 28 1013.8 0 31.3 30.4 54.1 142.9 151.0 524.2
02/09 17:50 30.6 47 14.72 18 13 20 1013.7 0 31.5 30.4 54.1 142.8 151.0 524.4
02/09 17:40 31.7 37 12.3 15.2 9 15 1013.6 0 26.4 26.4 44.4 117.0 119.6 414.7
02/09 17:30 31.8 35 11.69 14.4 9 17 1013.6 0 25.1 25.5 42.2 111.2 112.4 389.5
02/09 17:20 32 35 11.82 14.6 9 15 1013.4 0 25.4 25.6 42.5 112.1 113.6 393.7
02/09 17:10 32.2 34 11.6 14.3 11 17 1013.4 0 24.9 25.2 41.7 109.8 110.8 384.0
02/09 17:00 33 32 11.4 14.1 7 13 1013.2 0 24.4 24.7 40.6 106.9 107.4 372.3
02/09 16:50 33.3 32 11.58 14.4 9 22 1013.2 0 24.8 24.9 41.0 108.1 109.0 378.0
02/09 16:40 33.7 30 11.09 13.7 7 17 1013 0 23.8 24.1 39.2 103.2 103.0 357.1
02/09 16:30 33.6 29 10.66 13.6 9 17 1013.1 0 22.9 23.6 37.8 99.5 98.5 341.1
02/09 16:20 33.9 31 11.58 14.4 11 19 1013 0 24.8 24.7 40.7 107.3 108.2 375.2
02/09 16:10 34 31 11.64 14.5 7 20 1013 0 24.9 24.8 40.9 107.7 108.7 377.0
02/09 16:00 33.9 31 11.58 14.4 7 13 1013.1 0 24.8 24.7 40.7 107.3 108.2 375.2
02/09 15:50 33.8 31 11.52 14.3 11 20 1013.2 0 24.6 24.7 40.6 106.9 107.7 373.4
02/09 15:40 34.1 30 11.32 14.5 19 22 1013.2 0 24.2 24.3 39.8 104.7 105.1 364.3
02/09 15:30 34.1 30 11.32 14.5 7 9 1013.3 0 24.2 24.3 39.8 104.7 105.1 364.3
02/09 15:20 33.1 31 11.1 13.7 9 17 1013.4 0 23.8 24.3 39.5 104.0 104.0 360.2
02/09 15:10 33.4 30 10.91 13.5 11 19 1013.5 0 23.4 24.0 38.8 102.0 101.5 351.6
02/09 15:00 33.6 32 11.76 14.6 9 17 1013.6 0 25.2 25.1 41.5 109.4 110.7 383.8
02/09 14:50 33.4 33 12 14.9 11 19 1013.8 0 25.7 25.5 42.5 111.9 113.7 394.3
02/09 14:40 34.2 32 12.14 15.1 13 24 1014 0 25.9 25.4 42.5 112.1 114.1 396.0
02/09 14:30 33.1 33 11.81 14.7 11 17 1014 0 25.3 25.3 42.0 110.5 112.0 388.2
02/09 14:20 33.3 31 11.22 13.9 15 26 1014.2 0 24.1 24.4 39.9 104.9 105.1 364.2
02/09 14:10 33.3 33 11.94 14.8 7 19 1014.3 0 25.5 25.4 42.3 111.5 113.2 392.5
02/09 14:00 33.2 33 11.88 14.8 13 26 1014.5 0 25.4 25.4 42.2 111.1 112.6 390.7
02/09 13:50 33.3 35 12.66 15.8 7 17 1014.7 0 27.0 26.5 44.9 118.2 121.5 421.5
02/09 13:40 32.2 35 11.95 14.8 6 6 1014.9 0 25.6 25.8 43.0 113.2 114.9 398.4
02/09 13:30 33.9 34 12.7 15.8 11 22 1014.9 0 27.1 26.4 44.7 117.8 121.0 420.1
02/09 13:20 32.8 35 12.33 15.7 15 19 1015.1 0 26.4 26.1 44.0 115.9 118.4 410.8
02/09 13:10 32.6 36 12.55 15.6 11 26 1015.3 0 26.8 26.5 44.9 118.3 121.3 420.8
02/09 13:00 31.4 38 12.43 15.4 13 24 1015.6 0 26.7 26.7 45.1 118.9 121.7 422.3
02/09 12:50 32.4 36 12.42 15.4 9 22 1015.8 0 26.6 26.4 44.6 117.4 120.1 416.7
02/09 12:40 32.7 37 12.97 16.1 7 9 1016 0 27.7 27.1 46.4 122.2 126.1 437.8
02/09 12:30 32.1 35 11.88 14.7 13 26 1016.3 0 25.5 25.7 42.8 112.8 114.4 396.5
02/09 12:20 31.9 40 13.44 16.6 15 28 1016.3 0 28.7 28.1 48.5 128.0 133.1 461.9
02/09 12:10 32.1 38 12.9 16 15 28 1016.5 0 27.6 27.2 46.5 122.5 126.3 438.3
02/09 12:00 31.7 38 12.63 15.6 13 22 1016.6 0 27.0 27.0 45.7 120.5 123.7 429.3
02/09 11:50 31.8 39 13.03 16.1 15 24 1016.8 0 27.9 27.5 47.1 124.2 128.4 445.4
02/09 11:40 30.5 44 13.71 16.9 11 24 1017 0 29.4 29.0 50.5 133.1 138.8 482.0
02/09 11:30 30.6 42 13.16 16.2 15 26 1017.2 0 28.2 28.1 48.3 127.4 131.9 457.8
02/09 11:20 31.1 41 13.19 16.3 13 24 1017.4 0 28.2 28.0 48.2 127.0 131.5 456.3
02/09 11:10 30.7 42 13.23 16.3 19 24 1017.6 0 28.3 28.2 48.6 128.0 132.7 460.4
02/09 11:00 29.9 44 13.27 16.3 11 22 1017.8 0 28.5 28.5 49.2 129.7 134.5 466.8

Last Refresh: 03-Sep-2026 03:47:23

Bureau of Meteorology